Time;durP1;ratioP1;P1;durP2;ratioP2;P2;SDS_P1;SDS_P2;PMS_P1;PMS_P2;Temp;Humidity;BMP_temperature;BMP_pressure;BME280_temperature;BME280_humidity;BME280_pressure;Samples;Min_cycle;Max_cycle;Signal;HPM_P1;HPM_P2
2023/10/10 00:02:28;;;;;;;;;;;23.90;79.80;;;;;;5084140;28;43548;-81
2023/10/10 00:04:59;;;;;;;;;;;23.90;79.70;;;;;;5085100;28;42753;-80
2023/10/10 00:07:27;;;;;;;;;;;24.00;79.20;;;;;;5084049;28;43228;-82
2023/10/10 00:09:56;;;;;;;;;;;23.90;79.70;;;;;;5082082;27;42959;-81
2023/10/10 00:12:29;;;;;;;;;;;23.90;79.70;;;;;;5084149;28;44035;-80
2023/10/10 00:14:57;;;;;;;;;;;24.00;77.10;;;;;;5066883;28;42895;-79
2023/10/10 00:17:22;;;;;;;;;;;23.90;79.50;;;;;;5085204;28;42935;-80
2023/10/10 00:19:58;;;;;;;;;;;24.00;79.70;;;;;;5084526;28;42961;-81
2023/10/10 00:22:35;;;;;;;;;;;23.90;77.20;;;;;;5084196;28;42978;-80
2023/10/10 00:25:04;;;;;;;;;;;24.00;77.90;;;;;;5073265;28;42947;-82
2023/10/10 00:27:31;;;;;;;;;;;24.00;79.50;;;;;;5081688;28;43591;-81
2023/10/10 00:30:02;;;;;;;;;;;24.20;79.10;;;;;;5081883;28;43108;-81
2023/10/10 00:32:29;;;;;;;;;;;24.00;79.50;;;;;;5082620;28;42902;-81
2023/10/10 00:34:55;;;;;;;;;;;24.00;79.50;;;;;;5084320;28;42977;-80
2023/10/10 00:37:22;;;;;;;;;;;24.00;79.90;;;;;;5084239;28;43572;-80
2023/10/10 00:39:55;;;;;;;;;;;23.90;80.20;;;;;;5084785;28;42833;-81
2023/10/10 00:42:36;;;;;;;;;;;24.30;78.20;;;;;;5084947;28;43006;-81
2023/10/10 00:45:04;;;;;;;;;;;23.80;80.40;;;;;;5083785;28;42895;-81
2023/10/10 00:47:38;;;;;;;;;;;23.70;80.50;;;;;;5080549;28;42988;-81
2023/10/10 00:50:08;;;;;;;;;;;23.70;80.90;;;;;;5084346;28;43003;-81
2023/10/10 00:52:36;;;;;;;;;;;24.00;79.70;;;;;;5084785;28;42875;-81
2023/10/10 00:55:04;;;;;;;;;;;24.00;79.80;;;;;;5084915;28;42929;-81
2023/10/10 00:57:35;;;;;;;;;;;23.90;79.50;;;;;;5084201;28;42959;-81
2023/10/10 01:00:07;;;;;;;;;;;23.90;79.40;;;;;;5084129;28;42946;-81
2023/10/10 01:02:34;;;;;;;;;;;23.90;77.40;;;;;;5084308;27;44339;-80
2023/10/10 01:05:11;;;;;;;;;;;23.80;79.10;;;;;;5087860;28;43051;-82
2023/10/10 01:07:37;;;;;;;;;;;23.80;79.60;;;;;;5072275;28;44817;-81
2023/10/10 01:10:13;;;;;;;;;;;23.90;79.10;;;;;;5086348;28;42884;-81
2023/10/10 01:12:39;;;;;;;;;;;23.90;78.80;;;;;;5087255;28;43593;-80
2023/10/10 01:15:14;;;;;;;;;;;23.70;78.40;;;;;;5086987;28;42885;-81
2023/10/10 01:17:39;;;;;;;;;;;23.90;78.30;;;;;;5087558;28;43891;-81
2023/10/10 01:20:17;;;;;;;;;;;23.70;78.20;;;;;;5087393;28;42975;-81
2023/10/10 01:22:46;;;;;;;;;;;24.10;77.30;;;;;;5087348;28;43341;-81
2023/10/10 01:28:02;;;;;;;;;;;23.90;76.90;;;;;;5088528;28;42813;-81
2023/10/10 01:33:14;;;;;;;;;;;23.90;76.40;;;;;;5086838;28;43222;-81
2023/10/10 01:35:41;;;;;;;;;;;23.80;77.60;;;;;;5087538;28;42951;-80
2023/10/10 01:38:13;;;;;;;;;;;24.50;78.30;;;;;;5087439;28;42945;-81
2023/10/10 01:40:39;;;;;;;;;;;23.90;77.50;;;;;;5088800;27;42982;-81
2023/10/10 01:43:10;;;;;;;;;;;23.80;77.00;;;;;;5086863;28;42978;-81
2023/10/10 01:45:41;;;;;;;;;;;24.00;77.00;;;;;;5087574;28;42936;-81
2023/10/10 01:48:08;;;;;;;;;;;24.00;77.40;;;;;;5079283;28;44646;-81
2023/10/10 01:50:34;;;;;;;;;;;23.90;77.30;;;;;;5083999;28;42909;-81
2023/10/10 01:53:00;;;;;;;;;;;23.80;76.60;;;;;;5099043;28;44429;-82
2023/10/10 01:55:26;;;;;;;;;;;23.80;76.40;;;;;;5094071;28;43007;-81
2023/10/10 01:57:52;;;;;;;;;;;23.60;76.80;;;;;;5087637;28;42994;-81
2023/10/10 02:00:26;;;;;;;;;;;23.90;76.70;;;;;;5085778;27;43028;-81
2023/10/10 02:02:55;;;;;;;;;;;23.70;75.10;;;;;;5087361;28;42887;-80
2023/10/10 02:07:57;;;;;;;;;;;23.80;76.60;;;;;;5086970;28;43593;-82
2023/10/10 02:10:26;;;;;;;;;;;23.70;76.30;;;;;;5087159;28;43025;-81
2023/10/10 02:12:52;;;;;;;;;;;23.70;76.40;;;;;;5087033;28;43896;-81
2023/10/10 02:15:26;;;;;;;;;;;23.80;76.20;;;;;;5085951;28;42892;-81
2023/10/10 02:17:54;;;;;;;;;;;23.90;75.30;;;;;;5087095;28;43426;-81
2023/10/10 02:22:53;;;;;;;;;;;23.70;75.00;;;;;;5086206;28;43401;-81
2023/10/10 02:28:00;;;;;;;;;;;23.70;76.10;;;;;;5085850;28;43076;-81
2023/10/10 02:30:35;;;;;;;;;;;23.70;74.30;;;;;;5067813;28;42986;-81
2023/10/10 02:33:03;;;;;;;;;;;23.70;76.00;;;;;;5086073;28;43296;-81
2023/10/10 02:35:34;;;;;;;;;;;23.80;76.20;;;;;;5086563;28;42981;-81
2023/10/10 02:38:04;;;;;;;;;;;23.70;75.60;;;;;;5086235;28;43654;-81
2023/10/10 02:40:42;;;;;;;;;;;23.60;76.00;;;;;;5086071;28;42886;-81
2023/10/10 02:43:31;;;;;;;;;;;24.30;76.10;;;;;;5086609;28;44428;-81
2023/10/10 02:45:58;;;;;;;;;;;23.80;74.40;;;;;;5086268;28;43037;-81
2023/10/10 02:48:26;;;;;;;;;;;23.90;75.20;;;;;;5085932;28;43595;-80
2023/10/10 02:50:52;;;;;;;;;;;23.90;75.10;;;;;;5086099;28;42977;-80
2023/10/10 02:53:19;;;;;;;;;;;23.70;75.80;;;;;;5080876;28;42924;-81
2023/10/10 02:55:50;;;;;;;;;;;23.70;76.00;;;;;;5083586;28;43302;-82
2023/10/10 02:58:24;;;;;;;;;;;23.80;76.10;;;;;;5086069;28;42993;-81
2023/10/10 03:00:50;;;;;;;;;;;23.60;76.00;;;;;;5085210;28;43576;-81
2023/10/10 03:03:18;;;;;;;;;;;23.80;75.60;;;;;;5086162;28;43713;-81
2023/10/10 03:05:50;;;;;;;;;;;23.70;75.90;;;;;;5086332;28;42789;-81
2023/10/10 03:08:18;;;;;;;;;;;23.80;75.90;;;;;;5086246;28;44661;-82
2023/10/10 03:10:46;;;;;;;;;;;23.80;76.00;;;;;;5086301;28;42963;-81
2023/10/10 03:29:20;;;;;;;;;;;23.40;74.70;;;;;;5085509;28;42875;-81
2023/10/10 03:32:09;;;;;;;;;;;23.10;74.70;;;;;;5085695;28;42947;-81
2023/10/10 03:34:44;;;;;;;;;;;23.30;73.00;;;;;;5083285;28;43250;-80
2023/10/10 03:37:30;;;;;;;;;;;23.20;75.00;;;;;;5086226;28;42900;-81
2023/10/10 03:39:58;;;;;;;;;;;23.40;75.50;;;;;;5084987;28;43066;-80
2023/10/10 05:23:54;;;;;;;;;;;23.50;71.50;;;;;;5085939;28;43014;-81
2023/10/10 05:26:19;;;;;;;;;;;23.40;72.50;;;;;;5085103;28;42983;-81
2023/10/10 05:28:48;;;;;;;;;;;23.30;72.80;;;;;;5083801;28;43629;-81
2023/10/10 05:31:21;;;;;;;;;;;23.40;70.40;;;;;;5087292;28;43041;-81
2023/10/10 05:33:50;;;;;;;;;;;23.20;72.90;;;;;;5083553;28;43125;-80
2023/10/10 05:36:18;;;;;;;;;;;22.70;69.80;;;;;;5087873;28;42872;-81
2023/10/10 05:38:45;;;;;;;;;;;23.10;72.70;;;;;;5086617;28;42985;-81
2023/10/10 05:41:11;;;;;;;;;;;22.90;73.60;;;;;;5084994;28;43008;-83
2023/10/10 05:43:37;;;;;;;;;;;23.00;73.20;;;;;;5082799;28;43090;-81
2023/10/10 05:46:05;;;;;;;;;;;22.80;73.50;;;;;;5083802;28;43375;-80
2023/10/10 05:48:31;;;;;;;;;;;22.70;73.60;;;;;;5073778;27;42920;-81
2023/10/10 05:50:58;;;;;;;;;;;22.80;74.00;;;;;;5091938;27;43179;-79
2023/10/10 05:53:24;;;;;;;;;;;22.80;74.10;;;;;;5086329;27;42974;-80
2023/10/10 05:55:53;;;;;;;;;;;22.80;73.60;;;;;;5086839;28;42863;-80
2023/10/10 05:58:20;;;;;;;;;;;22.80;72.90;;;;;;5083091;28;43422;-80
2023/10/10 06:00:48;;;;;;;;;;;23.00;74.20;;;;;;5086935;28;43094;-80
2023/10/10 06:03:16;;;;;;;;;;;22.90;73.70;;;;;;5084493;27;44314;-80
2023/10/10 06:05:44;;;;;;;;;;;23.20;74.00;;;;;;5087152;28;42915;-80
2023/10/10 06:08:10;;;;;;;;;;;23.00;73.20;;;;;;5086937;28;42903;-80
2023/10/10 06:10:36;;;;;;;;;;;22.60;73.30;;;;;;5084253;28;42765;-80
2023/10/10 06:13:03;;;;;;;;;;;22.70;74.20;;;;;;5084454;28;42979;-80
2023/10/10 06:15:33;;;;;;;;;;;22.70;74.00;;;;;;5086198;28;42949;-79
2023/10/10 06:18:05;;;;;;;;;;;22.70;74.10;;;;;;5086187;28;43726;-82
2023/10/10 06:20:31;;;;;;;;;;;22.70;74.20;;;;;;5085185;27;43123;-81
2023/10/10 06:22:56;;;;;;;;;;;22.70;73.50;;;;;;5085288;28;44519;-79
2023/10/10 06:25:23;;;;;;;;;;;22.90;73.60;;;;;;5085728;28;42882;-81
2023/10/10 06:27:54;;;;;;;;;;;23.00;74.30;;;;;;5083572;27;43661;-80
2023/10/10 06:30:20;;;;;;;;;;;22.90;72.60;;;;;;5084350;28;43010;-80
2023/10/10 06:32:47;;;;;;;;;;;22.80;74.30;;;;;;5086372;28;43208;-79
2023/10/10 06:37:45;;;;;;;;;;;23.00;74.20;;;;;;5086089;28;42891;-80
2023/10/10 06:40:10;;;;;;;;;;;23.00;73.40;;;;;;5087208;28;43028;-81
2023/10/10 06:42:37;;;;;;;;;;;23.00;73.20;;;;;;5086753;28;43367;-81
2023/10/10 06:45:21;;;;;;;;;;;23.10;73.60;;;;;;5082419;27;42995;-80
2023/10/10 06:47:50;;;;;;;;;;;22.80;73.10;;;;;;5083606;27;43590;-80
2023/10/10 06:50:21;;;;;;;;;;;22.70;73.20;;;;;;5085225;28;42891;-80
2023/10/10 06:52:52;;;;;;;;;;;22.90;72.50;;;;;;5083274;28;43361;-81
2023/10/10 06:55:22;;;;;;;;;;;22.90;70.90;;;;;;5085300;28;42993;-80
2023/10/10 06:57:59;;;;;;;;;;;23.00;73.20;;;;;;5086589;28;42978;-80
2023/10/10 07:00:29;;;;;;;;;;;22.90;71.10;;;;;;5085874;27;42826;-80
2023/10/10 07:02:55;;;;;;;;;;;22.90;73.10;;;;;;5066678;28;44889;-80
2023/10/10 07:05:26;;;;;;;;;;;23.00;73.60;;;;;;5084921;28;43028;-81
2023/10/10 07:07:58;;;;;;;;;;;23.00;73.20;;;;;;5083337;28;43558;-81
2023/10/10 07:10:33;;;;;;;;;;;23.10;73.30;;;;;;5084055;28;42927;-79
2023/10/10 07:12:59;;;;;;;;;;;23.10;73.20;;;;;;5083139;28;42926;-79
2023/10/10 07:15:25;;;;;;;;;;;23.20;73.00;;;;;;5085653;28;43068;-80
2023/10/10 07:18:04;;;;;;;;;;;23.10;72.90;;;;;;5075426;28;43855;-81
2023/10/10 07:23:15;;;;;;;;;;;23.20;72.50;;;;;;5095533;28;42969;-80
2023/10/10 07:25:44;;;;;;;;;;;23.10;72.40;;;;;;5087942;28;42998;-80
2023/10/10 07:28:14;;;;;;;;;;;23.20;70.90;;;;;;5087239;28;43013;-81
2023/10/10 07:30:44;;;;;;;;;;;23.30;72.40;;;;;;5079083;28;42966;-81
2023/10/10 07:33:13;;;;;;;;;;;23.20;70.80;;;;;;5084263;28;43479;-81
2023/10/10 07:35:43;;;;;;;;;;;23.20;73.20;;;;;;5084031;28;59681;-81
2023/10/10 07:38:09;;;;;;;;;;;23.30;71.40;;;;;;5083834;28;42932;-81
2023/10/10 07:40:37;;;;;;;;;;;23.20;73.40;;;;;;5085534;28;42906;-81
2023/10/10 07:43:03;;;;;;;;;;;23.20;74.20;;;;;;5083797;28;44451;-80
2023/10/10 07:45:33;;;;;;;;;;;23.30;74.80;;;;;;5085110;28;42836;-80
2023/10/10 07:50:35;;;;;;;;;;;23.30;72.70;;;;;;5086039;28;43050;-80
2023/10/10 07:53:04;;;;;;;;;;;23.20;72.60;;;;;;5084572;28;43661;-80
2023/10/10 07:55:34;;;;;;;;;;;23.20;75.20;;;;;;5085338;28;43128;-80
2023/10/10 07:58:00;;;;;;;;;;;23.30;74.10;;;;;;5085767;28;42954;-80
2023/10/10 08:00:39;;;;;;;;;;;23.40;75.10;;;;;;5085492;28;43031;-80
2023/10/10 08:03:06;;;;;;;;;;;23.20;75.40;;;;;;5085659;28;44478;-80
2023/10/10 08:05:32;;;;;;;;;;;23.40;76.00;;;;;;5086007;28;42865;-80
2023/10/10 08:07:57;;;;;;;;;;;23.30;76.10;;;;;;5066814;28;44492;-80
2023/10/10 08:10:38;;;;;;;;;;;23.40;76.30;;;;;;5085496;28;42854;-80
2023/10/10 08:13:10;;;;;;;;;;;23.40;74.50;;;;;;5085496;28;42919;-80
2023/10/10 08:15:56;;;;;;;;;;;23.40;77.30;;;;;;5085922;28;42726;-81
2023/10/10 08:21:13;;;;;;;;;;;23.50;75.90;;;;;;5085571;28;43659;-80
2023/10/10 08:23:42;;;;;;;;;;;23.30;78.00;;;;;;5085022;28;43007;-80
2023/10/10 08:26:09;;;;;;;;;;;23.60;77.50;;;;;;5085262;28;42755;-80
2023/10/10 08:28:34;;;;;;;;;;;23.50;78.60;;;;;;5085006;28;42845;-80
2023/10/10 08:31:00;;;;;;;;;;;23.50;78.10;;;;;;5085056;28;42904;-80
2023/10/10 08:33:32;;;;;;;;;;;23.50;78.60;;;;;;5085069;28;42923;-80
2023/10/10 08:35:58;;;;;;;;;;;23.50;79.10;;;;;;5085291;28;42926;-81
2023/10/10 08:38:23;;;;;;;;;;;23.50;79.50;;;;;;5084721;28;43245;-80
2023/10/10 08:40:57;;;;;;;;;;;23.70;79.50;;;;;;5085452;28;42834;-81
2023/10/10 08:43:29;;;;;;;;;;;23.50;79.30;;;;;;5085523;28;43513;-81
2023/10/10 08:45:58;;;;;;;;;;;23.50;76.70;;;;;;5085091;28;42979;-81
2023/10/10 08:48:26;;;;;;;;;;;23.90;79.40;;;;;;5085175;28;43537;-81
2023/10/10 08:50:55;;;;;;;;;;;23.80;79.30;;;;;;5085358;28;43000;-80
2023/10/10 08:53:21;;;;;;;;;;;23.80;79.90;;;;;;5085150;28;42971;-80
2023/10/10 08:55:56;;;;;;;;;;;23.90;80.00;;;;;;5084816;28;43121;-80
2023/10/10 08:58:22;;;;;;;;;;;23.80;79.30;;;;;;5084966;28;43371;-80
2023/10/10 09:00:48;;;;;;;;;;;23.60;79.50;;;;;;5084811;28;42852;-80
2023/10/10 09:03:14;;;;;;;;;;;23.60;79.90;;;;;;5085274;28;42871;-80
2023/10/10 09:05:40;;;;;;;;;;;23.50;79.90;;;;;;5084586;28;42779;-80
2023/10/10 09:08:14;;;;;;;;;;;23.50;79.50;;;;;;5084218;28;43394;-80
2023/10/10 09:10:40;;;;;;;;;;;23.60;80.40;;;;;;5084485;28;43054;-80
2023/10/10 09:13:07;;;;;;;;;;;23.50;79.80;;;;;;5084757;28;43057;-80
2023/10/10 09:15:34;;;;;;;;;;;23.60;79.80;;;;;;5066936;28;42908;-80
2023/10/10 09:18:22;;;;;;;;;;;23.80;80.00;;;;;;5084291;28;44525;-80
2023/10/10 09:20:48;;;;;;;;;;;23.70;77.90;;;;;;5084109;28;42982;-80
2023/10/10 09:23:42;;;;;;;;;;;23.60;80.10;;;;;;5084202;27;42966;-80
2023/10/10 09:28:55;;;;;;;;;;;23.60;80.10;;;;;;5088047;28;43475;-80
2023/10/10 09:31:26;;;;;;;;;;;23.50;81.00;;;;;;5088388;28;42934;-80
2023/10/10 09:33:54;;;;;;;;;;;23.60;82.00;;;;;;5087126;28;43638;-80
2023/10/10 09:36:19;;;;;;;;;;;23.50;82.30;;;;;;5087461;28;42891;-80
2023/10/10 09:38:46;;;;;;;;;;;24.00;82.70;;;;;;5087506;28;43602;-80
2023/10/10 09:41:36;;;;;;;;;;;23.60;81.80;;;;;;5087778;28;42990;-80
2023/10/10 09:55:38;;;;;;;;;;;23.90;81.90;;;;;;5087888;28;43446;-80
2023/10/10 10:00:34;;;;;;;;;;;23.80;79.90;;;;;;5087367;28;42888;-80
2023/10/10 10:03:25;;;;;;;;;;;23.80;82.20;;;;;;5088867;28;42839;-80
2023/10/10 10:05:58;;;;;;;;;;;24.40;82.80;;;;;;5098333;27;42761;-80
2023/10/10 10:08:36;;;;;;;;;;;23.80;82.60;;;;;;5093006;28;42926;-80
2023/10/10 10:11:11;;;;;;;;;;;23.70;81.50;;;;;;5087834;28;43951;-80
2023/10/10 10:13:52;;;;;;;;;;;23.20;81.40;;;;;;5087428;28;42876;-80
2023/10/10 10:16:20;;;;;;;;;;;23.70;82.10;;;;;;5087545;28;43083;-80
2023/10/10 10:18:46;;;;;;;;;;;23.60;81.70;;;;;;5087540;28;43406;-80
2023/10/10 10:21:31;;;;;;;;;;;23.80;81.40;;;;;;5068313;28;43597;-80
2023/10/10 10:24:15;;;;;;;;;;;23.80;81.20;;;;;;5087153;28;43034;-80
2023/10/10 10:26:44;;;;;;;;;;;23.90;81.40;;;;;;5087483;28;43443;-80
2023/10/10 10:29:15;;;;;;;;;;;24.00;81.40;;;;;;5087191;28;42904;-80
2023/10/10 10:31:49;;;;;;;;;;;23.80;78.90;;;;;;5087246;28;43662;-80
2023/10/10 10:37:19;;;;;;;;;;;23.90;78.80;;;;;;5084765;28;43063;-80
2023/10/10 10:42:34;;;;;;;;;;;23.90;82.90;;;;;;5086812;28;42812;-80
2023/10/10 10:45:23;;;;;;;;;;;23.80;81.90;;;;;;5068464;28;43014;-80
2023/10/10 10:47:54;;;;;;;;;;;23.70;82.40;;;;;;5069013;28;44613;-80
2023/10/10 10:50:28;;;;;;;;;;;23.90;79.70;;;;;;5086621;28;42848;-80
2023/10/10 10:52:58;;;;;;;;;;;23.90;80.20;;;;;;5086943;28;42843;-80
2023/10/10 10:55:59;;;;;;;;;;;23.70;82.10;;;;;;5086888;28;43102;-80
2023/10/10 10:58:26;;;;;;;;;;;23.80;81.60;;;;;;5086600;28;42957;-80
2023/10/10 11:03:25;;;;;;;;;;;23.90;82.20;;;;;;5085405;28;42896;-80
2023/10/10 11:05:54;;;;;;;;;;;23.70;79.50;;;;;;5085783;28;42919;-80
2023/10/10 11:08:45;;;;;;;;;;;23.90;82.20;;;;;;5086467;28;43721;-80
2023/10/10 11:11:23;;;;;;;;;;;23.90;81.90;;;;;;5086498;28;42963;-80
2023/10/10 11:14:10;;;;;;;;;;;23.80;81.20;;;;;;5086296;28;42864;-80
2023/10/10 11:16:44;;;;;;;;;;;23.90;81.70;;;;;;5086408;28;42942;-81
2023/10/10 11:21:53;;;;;;;;;;;23.90;81.50;;;;;;5085828;28;43037;-80
2023/10/10 11:24:31;;;;;;;;;;;23.70;81.40;;;;;;5067732;28;43212;-80
2023/10/10 11:27:13;;;;;;;;;;;23.80;81.10;;;;;;5086604;28;42741;-80
2023/10/10 11:29:47;;;;;;;;;;;23.80;79.20;;;;;;5068293;28;44972;-80
2023/10/10 11:32:25;;;;;;;;;;;23.70;81.60;;;;;;5086052;28;42908;-81
2023/10/10 11:34:57;;;;;;;;;;;23.80;79.50;;;;;;5086196;28;43357;-81
2023/10/10 11:37:26;;;;;;;;;;;24.00;82.30;;;;;;5086347;28;42908;-80
2023/10/10 11:40:19;;;;;;;;;;;23.80;82.20;;;;;;5086183;28;43620;-82
2023/10/10 11:42:47;;;;;;;;;;;23.70;82.40;;;;;;5086325;28;43115;-81
2023/10/10 11:45:19;;;;;;;;;;;23.90;81.70;;;;;;5085285;28;43723;-80
2023/10/10 11:47:48;;;;;;;;;;;23.90;82.10;;;;;;5067117;28;42931;-80
2023/10/10 11:50:17;;;;;;;;;;;23.80;82.00;;;;;;5076794;28;42992;-80
2023/10/10 11:52:50;;;;;;;;;;;24.10;81.80;;;;;;5084259;28;43621;-80
2023/10/10 11:55:20;;;;;;;;;;;24.10;79.30;;;;;;5083227;28;42946;-80
2023/10/10 11:57:48;;;;;;;;;;;23.90;81.20;;;;;;5083979;28;42858;-80
2023/10/10 12:00:21;;;;;;;;;;;24.00;81.80;;;;;;5083740;28;43642;-80
2023/10/10 12:02:48;;;;;;;;;;;24.00;81.10;;;;;;5084057;28;43047;-80
2023/10/10 12:07:54;;;;;;;;;;;24.00;79.80;;;;;;5081079;28;42828;-80
2023/10/10 12:10:24;;;;;;;;;;;23.00;81.20;;;;;;5083454;28;44811;-79
2023/10/10 12:12:53;;;;;;;;;;;23.90;82.40;;;;;;5083593;28;43150;-80
2023/10/10 12:15:22;;;;;;;;;;;23.90;82.20;;;;;;5084209;28;42904;-80
2023/10/10 12:17:52;;;;;;;;;;;24.00;82.00;;;;;;5084126;28;42916;-80
2023/10/10 12:20:18;;;;;;;;;;;23.90;82.30;;;;;;5081756;28;43736;-81
2023/10/10 12:22:43;;;;;;;;;;;23.90;81.30;;;;;;5081350;28;43090;-81
2023/10/10 12:25:14;;;;;;;;;;;24.30;81.60;;;;;;5065940;28;44044;-80
2023/10/10 12:27:46;;;;;;;;;;;24.00;81.40;;;;;;5084842;28;42847;-80
2023/10/10 12:32:59;;;;;;;;;;;24.10;80.10;;;;;;5076306;28;43768;-81
2023/10/10 12:35:47;;;;;;;;;;;24.00;82.10;;;;;;5084328;28;42956;-81
2023/10/10 12:38:20;;;;;;;;;;;24.00;79.40;;;;;;5084093;28;43364;-80
2023/10/10 12:40:52;;;;;;;;;;;23.80;80.70;;;;;;5084432;28;42867;-81
2023/10/10 12:43:18;;;;;;;;;;;23.90;81.10;;;;;;5084429;28;42890;-82
2023/10/10 12:45:45;;;;;;;;;;;23.90;83.30;;;;;;5088808;28;43694;-80
2023/10/10 12:48:20;;;;;;;;;;;23.80;83.10;;;;;;5081269;28;42995;-80
2023/10/10 12:50:54;;;;;;;;;;;24.70;84.10;;;;;;5094762;28;42958;-80
2023/10/10 12:53:20;;;;;;;;;;;23.90;83.50;;;;;;5089331;28;42840;-80
2023/10/10 12:55:55;;;;;;;;;;;24.00;83.70;;;;;;5082829;28;42935;-80
2023/10/10 12:58:24;;;;;;;;;;;23.90;81.00;;;;;;5084835;27;43041;-80
2023/10/10 13:00:53;;;;;;;;;;;24.00;80.80;;;;;;5084606;28;43487;-80
2023/10/10 13:03:29;;;;;;;;;;;24.00;83.10;;;;;;5086970;28;43018;-80
2023/10/10 13:05:59;;;;;;;;;;;23.90;81.20;;;;;;5084250;28;43016;-81
2023/10/10 13:17:28;;;;;;;;;;;24.20;82.80;;;;;;5141722;22;42983;-80
2023/10/10 13:19:54;;;;;;;;;;;24.10;81.80;;;;;;5073075;28;42974;-81
2023/10/10 13:22:22;;;;;;;;;;;24.10;83.00;;;;;;5088284;28;42990;-81
2023/10/10 13:27:13;;;;;;;;;;;24.30;83.20;;;;;;5316790;22;71589;-82
2023/10/10 13:29:39;;;;;;;;;;;24.00;83.30;;;;;;5088213;28;43046;-80
2023/10/10 13:32:06;;;;;;;;;;;23.90;83.70;;;;;;5087676;28;42891;-81
2023/10/10 13:34:37;;;;;;;;;;;24.10;83.30;;;;;;5087896;28;42828;-80
2023/10/10 13:37:07;;;;;;;;;;;24.00;81.20;;;;;;5088042;28;42958;-79
2023/10/10 13:39:42;;;;;;;;;;;24.10;83.60;;;;;;5070410;28;43092;-79
2023/10/10 13:42:08;;;;;;;;;;;23.80;84.30;;;;;;5087902;28;43562;-80
2023/10/10 13:44:33;;;;;;;;;;;24.00;84.10;;;;;;5087420;28;43007;-80
2023/10/10 13:47:00;;;;;;;;;;;24.00;83.80;;;;;;5087667;28;42955;-80
2023/10/10 13:49:25;;;;;;;;;;;24.00;85.00;;;;;;5087560;28;42993;-80
2023/10/10 13:51:52;;;;;;;;;;;24.00;84.40;;;;;;5087164;28;43561;-80
2023/10/10 13:54:19;;;;;;;;;;;24.00;84.70;;;;;;5087634;28;43066;-80
2023/10/10 13:56:45;;;;;;;;;;;23.90;84.30;;;;;;5068591;28;44915;-80
2023/10/10 13:59:11;;;;;;;;;;;24.20;84.40;;;;;;5087874;28;42806;-79
2023/10/10 14:01:36;;;;;;;;;;;24.10;84.20;;;;;;5087408;28;43599;-80
2023/10/10 14:06:47;;;;;;;;;;;24.00;84.50;;;;;;5088068;28;42857;-81
2023/10/10 14:09:24;;;;;;;;;;;24.00;84.70;;;;;;5087413;28;42916;-80
2023/10/10 14:11:50;;;;;;;;;;;24.10;84.80;;;;;;5087315;27;42886;-81
2023/10/10 14:14:16;;;;;;;;;;;24.10;84.50;;;;;;5087375;28;42833;-80
2023/10/10 14:16:41;;;;;;;;;;;24.10;84.00;;;;;;5087655;28;43421;-80
2023/10/10 14:19:06;;;;;;;;;;;24.10;84.30;;;;;;5087431;28;42942;-80
2023/10/10 14:21:32;;;;;;;;;;;24.30;84.30;;;;;;5087640;28;42961;-81
2023/10/10 14:24:13;;;;;;;;;;;24.10;84.40;;;;;;5087041;28;43012;-82
2023/10/10 14:26:39;;;;;;;;;;;24.20;83.00;;;;;;5086677;28;43047;-81
2023/10/10 14:29:05;;;;;;;;;;;24.10;84.90;;;;;;5087035;28;42796;-80
2023/10/10 14:31:31;;;;;;;;;;;24.10;85.30;;;;;;5087287;28;42796;-81
2023/10/10 14:34:01;;;;;;;;;;;24.10;84.60;;;;;;5086813;28;42992;-81
2023/10/10 14:36:30;;;;;;;;;;;24.30;85.40;;;;;;5068840;28;44323;-80
2023/10/10 14:38:57;;;;;;;;;;;24.10;82.60;;;;;;5087422;28;42797;-80
2023/10/10 14:41:23;;;;;;;;;;;24.20;84.60;;;;;;5086539;28;43584;-81
2023/10/10 14:43:50;;;;;;;;;;;24.10;84.80;;;;;;5086482;28;42958;-79
2023/10/10 14:46:21;;;;;;;;;;;24.20;84.70;;;;;;5086208;28;43706;-81
2023/10/10 14:49:05;;;;;;;;;;;24.10;84.20;;;;;;5087025;28;43153;-80
2023/10/10 14:51:33;;;;;;;;;;;24.40;84.40;;;;;;5086678;28;44531;-80
2023/10/10 14:54:06;;;;;;;;;;;23.90;84.20;;;;;;5086677;28;42919;-81
2023/10/10 14:56:36;;;;;;;;;;;24.10;82.40;;;;;;5085593;28;43344;-80
2023/10/10 14:59:36;;;;;;;;;;;23.70;83.80;;;;;;5086563;28;43010;-79
2023/10/10 15:05:09;;;;;;;;;;;24.10;83.60;;;;;;5077974;22;42907;-81
2023/10/10 15:07:41;;;;;;;;;;;24.10;83.60;;;;;;5086922;28;43844;-81
2023/10/10 15:10:20;;;;;;;;;;;24.10;83.50;;;;;;5087064;28;42964;-82
2023/10/10 15:15:56;;;;;;;;;;;24.20;84.00;;;;;;5023630;28;42855;-80
2023/10/10 15:18:23;;;;;;;;;;;24.10;83.80;;;;;;5022827;28;42990;-80
2023/10/10 15:20:49;;;;;;;;;;;24.20;84.00;;;;;;5022973;28;43120;-80
2023/10/10 15:23:20;;;;;;;;;;;24.10;84.20;;;;;;5005708;28;42966;-79
2023/10/10 15:25:52;;;;;;;;;;;24.10;82.10;;;;;;5023246;28;42881;-80
2023/10/10 15:30:53;;;;;;;;;;;24.20;83.90;;;;;;5090811;22;43031;-80
2023/10/10 15:33:18;;;;;;;;;;;24.40;83.50;;;;;;5095017;28;43400;-81
2023/10/10 15:35:52;;;;;;;;;;;24.40;83.60;;;;;;5100987;28;42858;-80
2023/10/10 15:38:18;;;;;;;;;;;24.20;81.50;;;;;;5102120;28;43433;-79
2023/10/10 15:40:43;;;;;;;;;;;24.20;84.00;;;;;;5094725;28;42854;-79
2023/10/10 15:43:12;;;;;;;;;;;24.30;84.30;;;;;;5086041;28;43386;-80
2023/10/10 15:45:47;;;;;;;;;;;24.20;84.00;;;;;;5086092;28;43108;-80
2023/10/10 15:48:21;;;;;;;;;;;24.20;83.80;;;;;;5086338;28;43516;-79
2023/10/10 15:50:53;;;;;;;;;;;24.30;84.00;;;;;;5085841;28;43006;-81
2023/10/10 15:53:24;;;;;;;;;;;24.10;81.30;;;;;;5085685;28;43024;-80
2023/10/10 15:56:11;;;;;;;;;;;24.20;83.90;;;;;;5086042;28;43012;-80
2023/10/10 15:58:39;;;;;;;;;;;24.00;81.50;;;;;;5085839;28;43944;-79
2023/10/10 16:01:14;;;;;;;;;;;24.40;84.30;;;;;;5085525;28;42952;-79
2023/10/10 16:03:47;;;;;;;;;;;24.40;82.10;;;;;;5080160;28;42817;-79
2023/10/10 16:06:18;;;;;;;;;;;24.80;82.40;;;;;;5078172;28;42977;-80
2023/10/10 16:08:49;;;;;;;;;;;23.40;81.80;;;;;;5085296;28;43529;-80
2023/10/10 16:11:17;;;;;;;;;;;24.20;82.50;;;;;;5078084;28;43661;-81
2023/10/10 16:13:46;;;;;;;;;;;24.10;84.90;;;;;;5080209;27;44002;-80
2023/10/10 16:16:18;;;;;;;;;;;24.20;84.80;;;;;;5070781;28;43032;-80
2023/10/10 16:18:45;;;;;;;;;;;24.30;82.80;;;;;;5069120;28;43685;-80
2023/10/10 16:21:13;;;;;;;;;;;24.40;85.10;;;;;;5083970;28;43124;-80
2023/10/10 16:23:43;;;;;;;;;;;24.30;84.30;;;;;;5077622;27;43540;-80
2023/10/10 16:26:14;;;;;;;;;;;24.40;84.90;;;;;;5080350;28;43264;-80
2023/10/10 16:28:40;;;;;;;;;;;25.30;82.10;;;;;;5077851;28;44727;-80
2023/10/10 16:31:08;;;;;;;;;;;24.40;84.00;;;;;;5079096;28;43053;-79
2023/10/10 16:33:42;;;;;;;;;;;24.30;83.70;;;;;;5082120;28;42991;-81
2023/10/10 16:36:17;;;;;;;;;;;24.50;84.50;;;;;;5070471;28;42970;-80
2023/10/10 16:41:42;;;;;;;;;;;24.40;83.90;;;;;;5181414;22;43101;-81
2023/10/10 16:44:13;;;;;;;;;;;24.50;83.70;;;;;;5107518;27;43817;-80
2023/10/10 16:46:38;;;;;;;;;;;24.40;81.80;;;;;;5105124;27;43052;-80
2023/10/10 16:49:05;;;;;;;;;;;24.70;83.20;;;;;;5105743;27;43574;-80
2023/10/10 16:51:31;;;;;;;;;;;24.10;82.50;;;;;;5096075;27;43191;-80
2023/10/10 16:53:57;;;;;;;;;;;24.70;82.70;;;;;;5103435;27;43726;-82
2023/10/10 16:56:22;;;;;;;;;;;24.70;82.40;;;;;;5198877;22;42999;-82
2023/10/10 16:58:51;;;;;;;;;;;24.70;82.40;;;;;;5107358;27;43054;-82
2023/10/10 17:01:17;;;;;;;;;;;24.60;82.90;;;;;;5102384;27;43107;-80
2023/10/10 17:03:44;;;;;;;;;;;24.70;83.20;;;;;;5107390;27;43795;-81
2023/10/10 17:06:10;;;;;;;;;;;24.60;83.00;;;;;;5107100;27;43044;-83
2023/10/10 17:08:36;;;;;;;;;;;24.70;82.40;;;;;;5105775;27;44016;-82
2023/10/10 17:11:16;;;;;;;;;;;24.70;82.50;;;;;;5106747;27;43016;-80
2023/10/10 17:13:42;;;;;;;;;;;24.70;80.40;;;;;;5105575;27;43884;-82
2023/10/10 17:16:11;;;;;;;;;;;24.70;82.70;;;;;;5107834;27;42966;-81
2023/10/10 17:18:47;;;;;;;;;;;24.80;82.40;;;;;;5103899;27;43440;-81
2023/10/10 17:21:13;;;;;;;;;;;24.70;83.00;;;;;;5101235;27;42976;-82
2023/10/10 17:23:46;;;;;;;;;;;24.70;83.30;;;;;;5107358;27;42970;-81
2023/10/10 17:26:12;;;;;;;;;;;24.90;80.80;;;;;;5088440;27;43055;-81
2023/10/10 17:28:38;;;;;;;;;;;24.70;83.10;;;;;;5107582;27;42867;-82
2023/10/10 17:31:04;;;;;;;;;;;24.70;84.20;;;;;;5104452;27;43004;-81
2023/10/10 17:33:29;;;;;;;;;;;24.70;84.40;;;;;;5087417;27;43343;-80
2023/10/10 17:36:00;;;;;;;;;;;24.70;84.50;;;;;;5106023;27;43068;-81
2023/10/10 17:38:27;;;;;;;;;;;24.40;83.90;;;;;;5106142;27;43421;-81
2023/10/10 17:41:02;;;;;;;;;;;24.80;84.50;;;;;;5107298;27;42986;-80
2023/10/10 17:43:28;;;;;;;;;;;24.70;82.10;;;;;;5096053;27;43578;-80
2023/10/10 17:45:57;;;;;;;;;;;24.70;84.80;;;;;;5101060;27;42909;-81
2023/10/10 17:48:23;;;;;;;;;;;24.80;85.00;;;;;;5106923;27;43733;-80
2023/10/10 17:50:48;;;;;;;;;;;24.60;85.00;;;;;;5105008;27;43100;-80
2023/10/10 17:53:17;;;;;;;;;;;24.70;84.90;;;;;;5094708;27;43216;-80
2023/10/10 17:55:43;;;;;;;;;;;24.00;81.70;;;;;;5104450;27;43021;-81